Time;durP1;ratioP1;P1;durP2;ratioP2;P2;SDS_P1;SDS_P2;PMS_P1;PMS_P2;Temp;Humidity;BMP_temperature;BMP_pressure;BME280_temperature;BME280_humidity;BME280_pressure;Samples;Min_cycle;Max_cycle;Signal;HPM_P1;HPM_P2
2022/01/10 00:00:03;;;;;;;15.27;8.27;;;2.40;42.50;;;;;;5045330;28;20075;-64
2022/01/10 00:02:31;;;;;;;13.52;7.60;;;2.40;42.80;;;;;;5028181;28;20045;-64
2022/01/10 00:05:01;;;;;;;15.90;8.43;;;2.50;43.10;;;;;;5058258;28;20041;-64
2022/01/10 00:07:28;;;;;;;15.02;8.48;;;2.50;43.30;;;;;;5057424;28;20484;-63
2022/01/10 00:09:56;;;;;;;16.42;8.27;;;2.50;43.20;;;;;;5062270;28;20500;-63
2022/01/10 00:12:25;;;;;;;14.52;8.20;;;2.50;43.20;;;;;;5065228;28;20068;-64
2022/01/10 00:14:53;;;;;;;15.43;9.57;;;2.50;43.30;;;;;;5065343;28;20079;-64
2022/01/10 00:17:21;;;;;;;16.88;9.70;;;2.50;43.40;;;;;;5061774;28;20055;-65
2022/01/10 00:19:49;;;;;;;17.10;9.88;;;2.50;43.40;;;;;;5065288;28;20043;-65
2022/01/10 00:22:19;;;;;;;17.17;9.70;;;2.40;43.10;;;;;;5067388;28;20052;-64
2022/01/10 00:24:47;;;;;;;19.42;10.18;;;2.40;43.30;;;;;;5064852;28;20051;-63
2022/01/10 00:27:15;;;;;;;17.48;10.45;;;2.40;43.70;;;;;;5061497;28;20050;-64
2022/01/10 00:29:43;;;;;;;16.55;9.70;;;2.50;44.00;;;;;;5065206;28;20522;-64
2022/01/10 00:32:11;;;;;;;18.35;9.52;;;2.50;43.90;;;;;;5066753;28;20127;-65
2022/01/10 00:34:42;;;;;;;20.75;10.98;;;2.50;44.10;;;;;;5035817;28;20049;-64
2022/01/10 00:37:11;;;;;;;17.05;10.30;;;2.50;43.90;;;;;;5042851;28;20047;-64
2022/01/10 00:39:40;;;;;;;16.02;10.02;;;2.60;43.90;;;;;;5056447;28;20094;-64
2022/01/10 00:42:08;;;;;;;16.00;10.52;;;2.60;44.10;;;;;;5047564;28;20063;-64
2022/01/10 00:44:41;;;;;;;14.40;9.40;;;2.60;43.70;;;;;;5045516;28;20047;-64
2022/01/10 00:47:09;;;;;;;15.95;10.30;;;2.60;43.60;;;;;;5052115;28;20103;-65
2022/01/10 00:49:37;;;;;;;26.38;10.93;;;2.50;43.30;;;;;;5062088;28;20048;-64
2022/01/10 00:52:06;;;;;;;17.90;9.05;;;2.50;43.60;;;;;;5040732;28;20131;-64
2022/01/10 00:54:34;;;;;;;17.45;9.35;;;2.50;43.40;;;;;;5053067;28;20067;-64
2022/01/10 00:57:04;;;;;;;13.48;8.43;;;2.50;44.00;;;;;;5048895;28;20526;-64
2022/01/10 00:59:32;;;;;;;17.23;8.88;;;2.50;43.60;;;;;;5050879;28;20073;-64
2022/01/10 01:02:00;;;;;;;17.17;9.93;;;2.40;43.90;;;;;;5055243;28;20547;-64
2022/01/10 01:04:29;;;;;;;14.27;9.68;;;2.50;43.80;;;;;;5065642;28;20040;-65
2022/01/10 01:06:57;;;;;;;21.75;10.80;;;2.50;43.70;;;;;;5060136;28;20144;-64
2022/01/10 01:09:28;;;;;;;16.48;9.02;;;2.50;43.70;;;;;;5065527;28;20537;-64
2022/01/10 01:12:14;;;;;;;12.65;8.60;;;2.40;43.30;;;;;;5067197;28;20131;-65
2022/01/10 01:14:54;;;;;;;16.92;8.73;;;2.40;43.70;;;;;;5067753;28;20070;-64
2022/01/10 01:17:36;;;;;;;15.10;8.40;;;2.30;43.40;;;;;;5062697;28;20131;-64
2022/01/10 01:20:29;;;;;;;12.57;8.25;;;2.30;43.70;;;;;;5066857;28;20064;-65
2022/01/10 01:25:42;;;;;;;18.63;8.40;;;2.30;44.10;;;;;;5068044;28;20044;-64
2022/01/10 01:28:10;;;;;;;19.00;8.73;;;2.30;44.10;;;;;;5065389;28;20543;-64
2022/01/10 01:30:42;;;;;;;14.40;8.95;;;2.30;44.10;;;;;;5068394;28;20045;-64
2022/01/10 01:33:13;;;;;;;13.60;8.35;;;2.30;44.50;;;;;;5068174;28;20048;-64
2022/01/10 01:35:41;;;;;;;15.68;9.27;;;2.30;44.10;;;;;;5066530;28;20465;-64
2022/01/10 01:38:09;;;;;;;14.55;9.57;;;2.30;44.50;;;;;;5062571;28;20167;-65
2022/01/10 01:40:43;;;;;;;15.98;9.25;;;2.30;44.70;;;;;;5047967;28;20040;-64
2022/01/10 01:43:10;;;;;;;16.70;9.57;;;2.30;44.40;;;;;;5063013;28;20047;-64
2022/01/10 01:45:42;;;;;;;18.95;9.05;;;2.40;44.70;;;;;;5066616;28;20068;-63
2022/01/10 01:48:11;;;;;;;15.30;9.32;;;2.30;44.90;;;;;;5064158;28;20043;-65
2022/01/10 01:50:40;;;;;;;12.10;8.40;;;2.40;45.10;;;;;;5068391;28;20036;-64
2022/01/10 01:53:09;;;;;;;15.05;9.10;;;2.30;44.10;;;;;;5066242;28;20094;-65
2022/01/10 01:55:38;;;;;;;15.13;8.43;;;2.30;45.00;;;;;;5066827;28;20045;-65
2022/01/10 01:58:06;;;;;;;17.42;8.43;;;2.30;45.10;;;;;;5063747;28;20128;-67
2022/01/10 02:00:34;;;;;;;14.52;8.88;;;2.40;45.30;;;;;;5068243;28;20136;-64
2022/01/10 02:03:04;;;;;;;14.35;8.93;;;2.40;45.20;;;;;;5068120;28;20052;-65
2022/01/10 02:05:32;;;;;;;17.33;8.63;;;2.40;45.40;;;;;;5068204;28;20036;-64
2022/01/10 02:08:00;;;;;;;13.10;8.10;;;2.40;45.30;;;;;;5062418;28;20521;-65
2022/01/10 02:10:28;;;;;;;11.55;7.60;;;2.40;45.00;;;;;;5067295;28;20068;-65
2022/01/10 02:12:56;;;;;;;18.23;9.38;;;2.40;45.10;;;;;;5067218;28;20040;-65
2022/01/10 02:15:32;;;;;;;18.40;9.00;;;2.40;45.50;;;;;;5069138;28;20048;-64
2022/01/10 02:18:00;;;;;;;13.23;8.95;;;2.40;45.30;;;;;;5065343;28;20168;-64
2022/01/10 02:20:30;;;;;;;14.18;8.85;;;2.40;45.50;;;;;;5067220;28;20105;-64
2022/01/10 02:22:59;;;;;;;15.55;9.35;;;2.40;45.20;;;;;;5063251;28;20049;-65
2022/01/10 02:25:27;;;;;;;13.63;8.43;;;2.40;45.60;;;;;;5064884;28;20036;-66
2022/01/10 02:27:56;;;;;;;12.55;7.93;;;2.30;45.00;;;;;;5054357;28;20079;-65
2022/01/10 02:30:26;;;;;;;12.27;8.05;;;2.40;45.60;;;;;;5066255;28;20037;-65
2022/01/10 02:32:57;;;;;;;13.73;8.55;;;2.30;45.80;;;;;;5066847;28;20044;-64
2022/01/10 02:35:27;;;;;;;16.85;9.30;;;2.30;45.90;;;;;;5059130;28;20075;-64
2022/01/10 02:37:57;;;;;;;18.30;8.55;;;2.40;46.20;;;;;;5056104;28;20635;-65
2022/01/10 02:40:28;;;;;;;14.85;9.02;;;2.40;46.30;;;;;;5059402;28;20040;-64
2022/01/10 02:42:57;;;;;;;14.00;9.18;;;2.40;46.50;;;;;;5052816;28;20072;-64
2022/01/10 02:45:25;;;;;;;17.63;9.45;;;2.40;46.10;;;;;;5062752;28;20044;-64
2022/01/10 02:47:54;;;;;;;14.38;9.50;;;2.40;46.10;;;;;;5062382;28;20496;-64
2022/01/10 02:50:22;;;;;;;19.20;10.18;;;2.50;46.70;;;;;;5066771;28;20127;-65
2022/01/10 02:52:50;;;;;;;18.77;9.45;;;2.50;46.10;;;;;;5065864;28;20051;-64
2022/01/10 02:55:20;;;;;;;16.80;9.90;;;2.50;45.80;;;;;;5068763;28;20052;-64
2022/01/10 02:57:48;;;;;;;15.52;8.88;;;2.40;44.90;;;;;;5054000;28;20127;-64
2022/01/10 03:00:20;;;;;;;17.27;9.13;;;2.50;45.80;;;;;;5065483;28;20516;-65
2022/01/10 03:02:50;;;;;;;13.90;8.60;;;2.60;45.60;;;;;;5058446;28;20348;-64
2022/01/10 03:05:20;;;;;;;17.30;9.30;;;2.50;44.70;;;;;;5065726;28;20067;-65
2022/01/10 03:07:50;;;;;;;14.85;8.43;;;2.60;45.00;;;;;;5054258;28;20728;-64
2022/01/10 03:10:20;;;;;;;14.85;9.10;;;2.60;44.80;;;;;;5064630;28;20041;-64
2022/01/10 03:12:48;;;;;;;15.23;8.60;;;2.60;44.80;;;;;;5065057;28;20052;-65
2022/01/10 03:15:17;;;;;;;12.57;8.15;;;2.60;44.60;;;;;;5066042;28;20139;-65
2022/01/10 03:17:45;;;;;;;14.93;8.10;;;2.50;43.90;;;;;;5054157;28;20054;-64
2022/01/10 03:20:14;;;;;;;13.93;7.85;;;2.50;43.50;;;;;;5062021;28;20037;-65
2022/01/10 03:22:42;;;;;;;10.65;7.18;;;2.50;44.20;;;;;;5062951;28;20119;-65
2022/01/10 03:25:10;;;;;;;13.93;7.82;;;2.50;43.70;;;;;;5064904;28;20529;-65
2022/01/10 03:27:40;;;;;;;16.50;7.20;;;2.50;43.40;;;;;;5054106;28;20071;-65
2022/01/10 03:30:10;;;;;;;13.48;7.95;;;2.50;43.90;;;;;;5064509;28;20052;-64
2022/01/10 03:32:39;;;;;;;14.43;8.77;;;2.50;43.80;;;;;;5059417;28;20512;-65
2022/01/10 03:35:07;;;;;;;12.80;7.43;;;2.50;43.00;;;;;;5065609;28;20053;-65
2022/01/10 03:37:35;;;;;;;13.23;7.95;;;2.50;43.10;;;;;;5060975;28;20052;-64
2022/01/10 03:40:04;;;;;;;13.57;7.47;;;2.50;42.70;;;;;;5064384;28;20044;-64
2022/01/10 03:42:34;;;;;;;14.73;7.90;;;2.50;42.60;;;;;;5066844;28;20048;-65
2022/01/10 03:45:06;;;;;;;15.10;8.73;;;2.50;42.40;;;;;;5065556;28;20052;-64
2022/01/10 03:47:35;;;;;;;13.35;8.02;;;2.50;41.80;;;;;;5053601;28;20942;-65
2022/01/10 03:50:05;;;;;;;13.95;8.20;;;2.50;41.70;;;;;;5065893;28;20048;-64
2022/01/10 03:52:33;;;;;;;12.93;8.15;;;2.50;42.20;;;;;;5067034;28;20060;-65
2022/01/10 03:55:01;;;;;;;15.65;7.53;;;2.50;41.70;;;;;;5066885;28;20124;-65
2022/01/10 03:57:29;;;;;;;11.95;7.10;;;2.50;41.60;;;;;;5055161;28;20635;-65
2022/01/10 03:59:57;;;;;;;13.95;7.50;;;2.50;40.80;;;;;;5065565;28;20128;-65
2022/01/10 04:02:29;;;;;;;15.02;7.32;;;2.50;41.10;;;;;;5064270;28;20651;-66
2022/01/10 04:04:57;;;;;;;14.05;8.05;;;2.50;41.10;;;;;;5065885;28;20044;-65
2022/01/10 04:07:25;;;;;;;14.77;8.10;;;2.50;41.00;;;;;;5049738;28;20508;-65
2022/01/10 04:09:55;;;;;;;14.52;8.65;;;2.60;41.10;;;;;;5057979;28;20476;-65
2022/01/10 04:12:24;;;;;;;14.38;8.13;;;2.50;40.10;;;;;;5062095;28;20566;-65
2022/01/10 04:14:52;;;;;;;14.98;8.80;;;2.50;41.00;;;;;;5065037;28;20075;-63
2022/01/10 04:17:20;;;;;;;13.02;8.93;;;2.60;41.20;;;;;;5054036;28;20119;-64
2022/01/10 04:19:49;;;;;;;15.25;9.38;;;2.60;40.90;;;;;;5064778;28;20054;-65
2022/01/10 04:22:17;;;;;;;16.58;8.93;;;2.60;40.50;;;;;;5062697;28;20045;-65
2022/01/10 04:24:45;;;;;;;12.50;8.35;;;2.50;40.70;;;;;;5055828;28;20382;-66
2022/01/10 04:27:14;;;;;;;14.88;9.35;;;2.60;41.20;;;;;;5056391;28;20047;-65
2022/01/10 04:29:42;;;;;;;14.10;9.05;;;2.40;40.80;;;;;;5060287;28;20044;-64
2022/01/10 04:32:12;;;;;;;16.42;8.75;;;2.50;42.30;;;;;;5058373;28;20055;-63
2022/01/10 04:34:40;;;;;;;15.35;9.25;;;2.50;42.40;;;;;;5065283;28;20135;-65
2022/01/10 04:37:10;;;;;;;16.20;9.25;;;2.60;42.70;;;;;;5051882;28;20520;-64
2022/01/10 04:39:37;;;;;;;19.27;9.88;;;2.60;42.50;;;;;;5054217;28;20047;-65
2022/01/10 04:42:06;;;;;;;18.20;9.30;;;2.50;42.00;;;;;;5055576;28;20080;-65
2022/01/10 04:44:34;;;;;;;17.70;9.23;;;2.50;42.00;;;;;;5060730;28;20135;-65
2022/01/10 04:47:02;;;;;;;15.68;9.73;;;2.50;42.40;;;;;;5063685;28;20135;-65
2022/01/10 04:49:39;;;;;;;19.42;9.27;;;2.50;42.60;;;;;;5064476;28;20110;-65
2022/01/10 04:52:08;;;;;;;20.60;9.50;;;2.50;42.50;;;;;;5046128;28;20073;-64
2022/01/10 04:54:37;;;;;;;14.27;9.45;;;2.50;42.50;;;;;;5047976;28;20068;-64
2022/01/10 04:57:05;;;;;;;20.45;10.57;;;2.50;42.90;;;;;;5044683;28;20139;-65
2022/01/10 04:59:33;;;;;;;17.08;9.25;;;2.50;42.80;;;;;;5048016;28;20474;-66
2022/01/10 05:02:01;;;;;;;18.70;9.65;;;2.50;43.00;;;;;;5051139;28;20156;-64
2022/01/10 05:04:29;;;;;;;15.68;9.10;;;2.50;43.00;;;;;;5043733;28;20439;-65
2022/01/10 05:06:58;;;;;;;19.58;10.13;;;2.50;42.30;;;;;;5055190;28;20518;-64
2022/01/10 05:09:26;;;;;;;16.75;9.68;;;2.50;42.70;;;;;;5065052;28;20135;-65
2022/01/10 05:11:55;;;;;;;14.95;9.65;;;2.50;42.40;;;;;;5063334;28;20133;-64
2022/01/10 05:14:23;;;;;;;18.15;8.98;;;2.40;42.30;;;;;;5029775;28;20048;-64
2022/01/10 05:16:51;;;;;;;16.20;9.77;;;2.40;42.60;;;;;;5044351;28;20044;-65
2022/01/10 05:19:20;;;;;;;16.85;9.95;;;2.40;42.80;;;;;;5060648;28;20052;-65
2022/01/10 05:21:48;;;;;;;15.23;9.18;;;2.40;42.30;;;;;;5067330;28;20052;-64
2022/01/10 05:24:16;;;;;;;18.08;10.52;;;2.40;42.40;;;;;;5068292;28;20067;-66
2022/01/10 05:26:44;;;;;;;16.67;10.02;;;2.40;42.40;;;;;;5062802;28;20040;-65
2022/01/10 05:29:13;;;;;;;18.23;10.82;;;2.40;42.90;;;;;;5069091;28;20041;-65
2022/01/10 05:31:41;;;;;;;18.08;10.80;;;2.40;42.50;;;;;;5052448;28;20053;-65
2022/01/10 05:34:09;;;;;;;20.50;10.52;;;2.40;42.70;;;;;;5059114;28;20119;-64
2022/01/10 05:36:37;;;;;;;19.52;11.20;;;2.40;43.10;;;;;;5060412;28;20582;-65
2022/01/10 05:39:07;;;;;;;23.40;12.18;;;2.40;43.20;;;;;;5064394;28;20052;-65
2022/01/10 05:41:36;;;;;;;23.75;11.73;;;2.40;43.20;;;;;;5050255;28;20110;-65
2022/01/10 05:44:05;;;;;;;23.17;11.88;;;2.40;43.60;;;;;;5057303;28;20093;-64
2022/01/10 05:46:37;;;;;;;21.45;11.50;;;2.40;43.80;;;;;;5049393;28;20147;-65
2022/01/10 05:49:07;;;;;;;19.15;11.60;;;2.40;42.80;;;;;;5049011;28;20052;-65
2022/01/10 05:51:36;;;;;;;21.70;11.43;;;2.40;43.80;;;;;;5062241;28;20044;-64
2022/01/10 05:54:06;;;;;;;19.38;11.98;;;2.40;44.00;;;;;;5056601;28;20408;-65
2022/01/10 05:56:35;;;;;;;17.80;10.80;;;2.40;44.10;;;;;;5045069;28;20041;-65
2022/01/10 05:59:04;;;;;;;21.70;12.35;;;2.30;44.10;;;;;;5065304;28;20044;-64
2022/01/10 06:01:32;;;;;;;20.65;11.07;;;2.30;44.50;;;;;;5068069;28;20041;-65
2022/01/10 06:04:02;;;;;;;18.65;11.00;;;2.30;43.60;;;;;;5060640;28;20047;-64
2022/01/10 06:06:29;;;;;;;22.40;12.20;;;2.30;43.70;;;;;;5062032;28;20140;-65
2022/01/10 06:08:57;;;;;;;21.85;13.10;;;2.20;42.90;;;;;;5059396;28;20049;-66
2022/01/10 06:11:28;;;;;;;25.00;12.93;;;2.30;44.30;;;;;;5046501;28;20132;-66
2022/01/10 06:13:57;;;;;;;30.58;12.45;;;2.20;43.90;;;;;;5032364;28;20033;-64
2022/01/10 06:16:25;;;;;;;18.63;12.00;;;2.30;43.90;;;;;;5064219;28;20060;-67
2022/01/10 06:18:53;;;;;;;21.88;12.80;;;2.30;44.10;;;;;;5050771;28;20046;-66
2022/01/10 06:21:26;;;;;;;21.15;12.48;;;2.20;43.70;;;;;;5047523;28;20051;-66
2022/01/10 06:23:55;;;;;;;29.20;13.18;;;2.20;44.40;;;;;;5047496;28;20077;-65
2022/01/10 06:26:23;;;;;;;21.27;13.20;;;2.20;44.60;;;;;;5045950;28;20133;-66
2022/01/10 06:28:51;;;;;;;24.33;13.20;;;2.20;44.50;;;;;;5044247;28;20411;-65
2022/01/10 06:31:21;;;;;;;25.45;14.23;;;2.20;45.00;;;;;;5057854;28;20055;-65
2022/01/10 06:33:49;;;;;;;24.40;13.32;;;2.20;44.80;;;;;;5067280;28;20055;-65
2022/01/10 06:36:17;;;;;;;23.98;13.98;;;2.10;44.70;;;;;;5065870;28;20094;-65
2022/01/10 06:38:47;;;;;;;27.23;13.85;;;2.20;45.20;;;;;;5063139;28;20539;-66
2022/01/10 06:41:17;;;;;;;29.48;14.38;;;2.20;44.50;;;;;;5063606;28;20445;-67
2022/01/10 06:43:45;;;;;;;25.48;14.10;;;2.20;44.90;;;;;;5067672;28;20037;-65
2022/01/10 06:46:13;;;;;;;21.73;12.98;;;2.20;44.90;;;;;;5050430;28;20049;-65
2022/01/10 06:48:44;;;;;;;23.35;13.63;;;2.20;45.00;;;;;;5043748;28;20086;-65
2022/01/10 06:51:17;;;;;;;26.00;14.25;;;2.20;44.50;;;;;;5036725;28;20139;-65
2022/01/10 06:53:50;;;;;;;23.25;13.27;;;2.20;44.30;;;;;;5046920;28;20055;-66
2022/01/10 06:56:18;;;;;;;29.83;12.98;;;2.20;43.80;;;;;;5045431;28;20045;-65
2022/01/10 06:58:46;;;;;;;21.33;13.50;;;2.10;43.70;;;;;;5042543;28;20072;-65
2022/01/10 07:01:17;;;;;;;26.88;13.85;;;2.20;44.20;;;;;;5043216;28;20118;-65
2022/01/10 07:03:46;;;;;;;20.13;13.07;;;2.20;43.50;;;;;;5047349;28;20037;-65
2022/01/10 07:06:14;;;;;;;28.38;15.02;;;2.30;44.00;;;;;;5062934;28;20132;-67
2022/01/10 07:08:42;;;;;;;29.05;14.73;;;2.20;43.00;;;;;;5051704;28;20094;-66
2022/01/10 07:11:11;;;;;;;27.63;14.05;;;2.30;43.80;;;;;;5066168;28;20076;-66
2022/01/10 07:13:43;;;;;;;26.98;14.65;;;2.30;43.60;;;;;;5063439;28;20042;-67
2022/01/10 07:16:13;;;;;;;28.15;14.57;;;2.30;43.90;;;;;;5056403;28;20131;-65
2022/01/10 07:18:41;;;;;;;23.80;14.85;;;2.30;43.10;;;;;;5043156;28;20455;-65
2022/01/10 07:21:09;;;;;;;25.23;14.10;;;2.30;43.60;;;;;;5047458;28;20049;-65
2022/01/10 07:23:37;;;;;;;26.63;13.20;;;2.20;43.40;;;;;;5048147;28;20119;-65
2022/01/10 07:26:05;;;;;;;25.38;12.88;;;2.20;42.00;;;;;;5053669;28;20510;-66
2022/01/10 07:28:35;;;;;;;24.00;13.25;;;2.20;42.70;;;;;;5045305;28;20065;-66
2022/01/10 07:31:03;;;;;;;24.33;13.48;;;2.20;42.60;;;;;;5063719;28;20056;-65
2022/01/10 07:33:31;;;;;;;25.65;14.18;;;2.20;43.60;;;;;;5065380;28;20094;-66
2022/01/10 07:36:01;;;;;;;22.20;13.13;;;2.30;44.10;;;;;;5061980;28;20056;-65
2022/01/10 07:38:35;;;;;;;21.60;12.65;;;2.20;43.20;;;;;;5042392;28;20250;-65
2022/01/10 07:41:04;;;;;;;23.92;13.80;;;2.20;43.30;;;;;;5048096;28;20047;-67
2022/01/10 07:43:33;;;;;;;26.10;14.50;;;2.20;43.50;;;;;;5052453;28;20033;-66
2022/01/10 07:46:03;;;;;;;29.70;14.30;;;2.30;43.90;;;;;;5064012;28;20048;-65
2022/01/10 07:48:34;;;;;;;29.13;13.82;;;2.20;43.80;;;;;;5059604;28;20488;-65
2022/01/10 07:51:03;;;;;;;29.90;15.98;;;2.20;43.90;;;;;;5064150;28;20052;-66
2022/01/10 07:53:31;;;;;;;22.25;14.00;;;2.20;43.60;;;;;;5046142;28;20519;-67
2022/01/10 07:55:59;;;;;;;26.35;14.15;;;2.20;42.80;;;;;;5064784;28;20521;-66
2022/01/10 07:58:30;;;;;;;25.88;13.93;;;2.30;42.90;;;;;;5059691;28;20125;-67
2022/01/10 08:01:05;;;;;;;27.65;14.05;;;2.20;43.00;;;;;;5062034;28;20101;-67
2022/01/10 08:03:34;;;;;;;25.80;14.98;;;2.20;42.90;;;;;;5065650;28;20055;-66
2022/01/10 08:06:04;;;;;;;28.98;16.10;;;2.30;43.80;;;;;;5066943;28;20048;-66
2022/01/10 08:08:33;;;;;;;30.20;15.77;;;2.20;41.70;;;;;;5059453;28;20098;-66
2022/01/10 08:11:02;;;;;;;25.23;13.45;;;2.30;43.40;;;;;;5063827;28;20053;-66
2022/01/10 08:13:30;;;;;;;26.85;14.80;;;2.40;43.00;;;;;;5062648;28;20033;-66
2022/01/10 08:15:58;;;;;;;32.05;15.68;;;2.40;43.10;;;;;;5063070;28;20727;-66
2022/01/10 08:18:30;;;;;;;34.28;15.25;;;2.40;43.00;;;;;;5060697;28;20546;-66
2022/01/10 08:20:58;;;;;;;32.55;16.25;;;2.40;43.00;;;;;;5067166;28;20396;-66
2022/01/10 08:23:26;;;;;;;25.73;14.60;;;2.40;41.90;;;;;;5069735;28;20037;-66
2022/01/10 08:25:54;;;;;;;26.42;16.15;;;2.50;42.50;;;;;;5069286;28;20064;-67
2022/01/10 08:28:22;;;;;;;28.10;14.25;;;2.40;42.60;;;;;;5064224;28;20045;-65
2022/01/10 08:30:50;;;;;;;26.77;13.70;;;2.50;42.20;;;;;;5068179;28;20131;-66
2022/01/10 08:33:19;;;;;;;29.95;15.13;;;2.50;40.50;;;;;;5068343;28;20087;-66
2022/01/10 08:35:48;;;;;;;28.70;13.50;;;2.40;41.10;;;;;;5068138;28;20075;-65
2022/01/10 08:38:16;;;;;;;27.58;15.52;;;2.50;41.30;;;;;;5064144;28;20132;-66
2022/01/10 08:40:44;;;;;;;29.30;15.50;;;2.50;40.90;;;;;;5068025;28;20094;-66
2022/01/10 08:43:13;;;;;;;33.20;16.98;;;2.50;40.10;;;;;;5067512;28;20411;-65
2022/01/10 08:45:41;;;;;;;25.58;14.10;;;2.60;40.20;;;;;;5068891;28;20048;-67
2022/01/10 08:48:09;;;;;;;31.83;15.90;;;2.50;40.10;;;;;;5060973;28;20127;-66
2022/01/10 08:50:38;;;;;;;33.65;15.00;;;2.50;41.20;;;;;;5067781;28;20115;-66
2022/01/10 08:53:09;;;;;;;29.42;15.18;;;2.60;40.20;;;;;;5068544;28;20139;-65
2022/01/10 08:55:38;;;;;;;27.83;15.95;;;2.70;40.40;;;;;;5066353;28;20123;-65
2022/01/10 08:58:07;;;;;;;32.67;15.55;;;2.60;38.90;;;;;;5063832;28;20086;-65
2022/01/10 09:00:36;;;;;;;29.67;15.60;;;2.60;40.20;;;;;;5057891;28;20064;-67
2022/01/10 09:03:05;;;;;;;25.38;14.63;;;2.60;40.20;;;;;;5037067;28;20077;-66
2022/01/10 09:05:33;;;;;;;39.47;15.00;;;2.60;39.50;;;;;;5050980;28;20044;-66
2022/01/10 09:08:04;;;;;;;30.38;15.65;;;2.80;41.50;;;;;;5043947;28;20061;-66
2022/01/10 09:10:34;;;;;;;29.65;16.38;;;2.90;39.80;;;;;;5049391;28;20044;-68
2022/01/10 09:13:03;;;;;;;34.17;16.33;;;3.10;39.80;;;;;;5063420;28;20084;-66
2022/01/10 09:15:32;;;;;;;34.45;15.85;;;3.10;38.60;;;;;;5069070;28;20056;-66
2022/01/10 09:18:05;;;;;;;30.27;14.43;;;3.10;37.40;;;;;;5056173;28;20106;-67
2022/01/10 09:20:34;;;;;;;32.47;13.75;;;3.00;36.40;;;;;;5044469;28;20049;-66
2022/01/10 09:23:02;;;;;;;23.48;12.98;;;2.90;35.00;;;;;;5048537;28;20080;-66
2022/01/10 09:25:31;;;;;;;28.52;13.93;;;2.80;33.20;;;;;;5068746;28;20057;-65
2022/01/10 09:28:01;;;;;;;22.52;12.77;;;3.00;36.70;;;;;;5063813;28;20067;-65
2022/01/10 09:30:30;;;;;;;22.70;12.73;;;3.00;34.80;;;;;;5055498;28;20094;-67
2022/01/10 09:33:00;;;;;;;23.83;12.98;;;3.10;33.70;;;;;;5047914;28;20123;-66
2022/01/10 09:35:29;;;;;;;24.65;11.93;;;3.00;32.70;;;;;;5049239;28;20064;-65
2022/01/10 09:37:57;;;;;;;23.83;12.93;;;3.00;32.20;;;;;;5043932;28;20572;-66
2022/01/10 09:40:26;;;;;;;21.48;11.85;;;3.00;33.20;;;;;;5030588;28;20099;-66
2022/01/10 09:42:57;;;;;;;25.55;13.00;;;3.00;32.80;;;;;;5025948;28;20095;-66
2022/01/10 09:45:28;;;;;;;27.13;13.27;;;2.90;33.50;;;;;;5056084;28;20048;-66
2022/01/10 09:47:56;;;;;;;28.17;14.30;;;3.00;32.40;;;;;;5062339;28;20049;-67
2022/01/10 09:50:25;;;;;;;32.05;14.02;;;3.10;31.70;;;;;;5062580;28;20559;-66
2022/01/10 09:52:53;;;;;;;23.42;13.27;;;3.00;32.00;;;;;;5067035;28;20055;-66
2022/01/10 09:55:21;;;;;;;30.77;14.95;;;3.10;33.00;;;;;;5048475;28;20037;-66
2022/01/10 09:57:50;;;;;;;28.42;14.52;;;3.20;32.40;;;;;;5061916;28;20102;-65
2022/01/10 10:00:20;;;;;;;28.48;14.48;;;3.30;32.80;;;;;;5067294;28;20075;-65
2022/01/10 10:02:50;;;;;;;30.40;15.70;;;3.30;31.90;;;;;;5065395;28;20056;-66
2022/01/10 10:05:20;;;;;;;26.05;14.77;;;3.30;31.70;;;;;;5063683;28;20044;-65
2022/01/10 10:07:49;;;;;;;27.73;14.27;;;3.40;30.90;;;;;;5043270;28;20127;-66
2022/01/10 10:10:18;;;;;;;27.63;13.63;;;3.30;29.10;;;;;;5065354;28;20094;-66
2022/01/10 10:12:48;;;;;;;24.15;12.90;;;3.40;30.60;;;;;;5067539;28;20078;-65
2022/01/10 10:15:22;;;;;;;23.85;13.50;;;3.40;27.80;;;;;;5066747;28;20048;-66
2022/01/10 10:17:53;;;;;;;28.27;14.15;;;3.50;28.80;;;;;;5043965;28;20140;-66
2022/01/10 10:20:23;;;;;;;24.50;11.98;;;3.60;27.10;;;;;;5061814;28;20051;-65
2022/01/10 10:23:15;;;;;;;21.92;12.30;;;3.80;26.10;;;;;;5066043;28;20036;-66
2022/01/10 10:25:48;;;;;;;21.88;13.00;;;3.80;24.90;;;;;;5064528;28;20059;-66
2022/01/10 10:28:17;;;;;;;24.92;12.73;;;3.80;25.20;;;;;;5059480;28;20036;-65
2022/01/10 10:30:46;;;;;;;28.40;13.07;;;3.50;25.50;;;;;;5050647;28;20306;-65
2022/01/10 10:33:18;;;;;;;20.48;12.63;;;3.60;26.50;;;;;;5048594;28;20114;-65
2022/01/10 10:35:55;;;;;;;26.20;13.30;;;3.70;24.30;;;;;;5030778;28;20119;-66
2022/01/10 10:38:26;;;;;;;19.33;10.20;;;3.80;25.20;;;;;;5041461;28;20575;-65
2022/01/10 10:40:54;;;;;;;20.02;11.27;;;3.70;23.30;;;;;;5064644;28;20068;-65
2022/01/10 10:43:24;;;;;;;22.55;12.05;;;3.80;24.40;;;;;;5063074;28;20052;-65
2022/01/10 10:45:55;;;;;;;28.17;12.50;;;3.80;25.10;;;;;;5065577;28;20074;-65
2022/01/10 10:48:25;;;;;;;22.40;12.63;;;4.00;24.10;;;;;;5058202;28;20076;-65
2022/01/10 10:50:54;;;;;;;21.38;11.45;;;4.00;22.70;;;;;;5062250;28;20072;-66
2022/01/10 10:53:28;;;;;;;22.50;11.63;;;4.00;21.20;;;;;;5067711;28;20044;-65
2022/01/10 10:55:59;;;;;;;29.15;12.88;;;3.90;21.60;;;;;;5064758;28;20048;-66
2022/01/10 10:58:31;;;;;;;;;;;3.90;20.10;;;;;;5057544;28;20068;-65
2022/01/10 11:01:01;;;;;;;22.52;11.52;;;3.80;20.70;;;;;;5064265;28;19955;-66
2022/01/10 11:03:30;;;;;;;21.35;10.65;;;4.10;20.90;;;;;;5064186;28;20139;-66
2022/01/10 11:06:03;;;;;;;156.35;83.90;;;4.00;20.20;;;;;;5064183;28;20049;-66
2022/01/10 11:08:32;;;;;;;28.17;12.93;;;4.40;20.00;;;;;;5058806;28;20422;-66
2022/01/10 11:11:03;;;;;;;21.55;11.30;;;4.60;18.20;;;;;;5065632;28;20131;-66
2022/01/10 11:13:32;;;;;;;22.60;11.93;;;4.40;16.60;;;;;;5065193;28;20064;-66
2022/01/10 11:16:01;;;;;;;22.95;11.70;;;4.40;18.00;;;;;;5064352;28;20040;-66
2022/01/10 11:18:34;;;;;;;26.35;12.25;;;4.30;16.60;;;;;;5060142;28;20067;-65
2022/01/10 11:21:02;;;;;;;19.63;10.32;;;4.40;17.20;;;;;;5045464;28;20044;-65
2022/01/10 11:23:40;;;;;;;20.10;10.43;;;4.20;16.40;;;;;;5063123;28;20049;-65
2022/01/10 11:26:08;;;;;;;21.33;12.93;;;4.50;15.80;;;;;;5064288;28;20228;-66
2022/01/10 11:28:47;;;;;;;26.95;12.70;;;4.40;17.20;;;;;;5060366;28;20047;-65
2022/01/10 11:31:20;;;;;;;25.58;11.45;;;4.10;17.90;;;;;;5062751;28;20243;-66
2022/01/10 11:33:53;;;;;;;19.20;11.73;;;4.40;18.10;;;;;;5065060;28;20575;-66
2022/01/10 11:36:25;;;;;;;19.48;10.38;;;4.20;18.60;;;;;;5067828;28;20524;-65
2022/01/10 11:38:55;;;;;;;20.88;10.70;;;4.40;17.10;;;;;;5058423;28;20064;-66
2022/01/10 11:41:25;;;;;;;23.17;11.73;;;4.20;15.70;;;;;;5062448;28;20130;-65
2022/01/10 11:44:03;;;;;;;20.77;11.27;;;4.40;17.60;;;;;;5060656;28;20044;-65
2022/01/10 11:46:37;;;;;;;20.55;12.00;;;4.30;15.70;;;;;;5059884;28;20040;-64
2022/01/10 11:49:17;;;;;;;24.65;13.32;;;4.30;17.30;;;;;;5061143;28;20048;-65
2022/01/10 11:51:59;;;;;;;27.77;12.07;;;4.40;16.90;;;;;;5062397;28;20056;-66
2022/01/10 11:54:29;;;;;;;24.95;11.60;;;4.30;18.70;;;;;;5063871;28;20052;-66
2022/01/10 11:56:59;;;;;;;22.42;11.52;;;4.30;17.60;;;;;;5061715;28;20057;-66
2022/01/10 11:59:29;;;;;;;21.45;11.57;;;4.20;17.50;;;;;;5062705;28;20044;-64
2022/01/10 12:02:02;;;;;;;22.17;11.25;;;4.20;17.80;;;;;;5062835;28;20098;-66
2022/01/10 12:04:34;;;;;;;19.27;10.48;;;4.30;16.50;;;;;;5064263;28;20056;-66
2022/01/10 12:07:04;;;;;;;22.85;10.77;;;4.30;16.40;;;;;;5060494;28;20048;-64
2022/01/10 12:09:33;;;;;;;23.20;10.20;;;4.40;16.20;;;;;;5062264;28;20075;-67
2022/01/10 12:12:08;;;;;;;25.20;10.90;;;4.10;15.50;;;;;;5065222;28;20496;-65
2022/01/10 12:14:36;;;;;;;19.55;10.15;;;4.30;16.60;;;;;;5063050;28;20307;-66
2022/01/10 12:17:07;;;;;;;24.08;11.00;;;4.50;16.60;;;;;;5061880;28;20079;-66
2022/01/10 12:19:39;;;;;;;23.00;11.27;;;4.40;15.70;;;;;;5063400;28;20052;-66
2022/01/10 12:22:07;;;;;;;23.15;11.90;;;4.30;15.70;;;;;;5065651;28;20059;-65
2022/01/10 12:24:36;;;;;;;23.42;11.27;;;4.40;19.20;;;;;;5065064;28;20109;-65
2022/01/10 12:27:05;;;;;;;27.55;12.88;;;4.50;18.50;;;;;;5062061;28;20056;-65
2022/01/10 12:29:34;;;;;;;24.40;13.18;;;4.20;19.10;;;;;;5061917;28;20040;-65
2022/01/10 12:32:04;;;;;;;30.08;16.05;;;4.00;19.80;;;;;;5067216;28;20131;-66
2022/01/10 12:34:32;;;;;;;21.60;11.27;;;4.30;19.50;;;;;;5064491;28;20054;-65
2022/01/10 12:37:02;;;;;;;24.60;12.57;;;4.30;18.10;;;;;;5059461;28;20082;-65
2022/01/10 12:39:31;;;;;;;24.15;12.25;;;4.30;18.40;;;;;;5061093;28;20287;-66
2022/01/10 12:42:00;;;;;;;22.63;12.07;;;4.30;18.90;;;;;;5061682;28;20131;-65
2022/01/10 12:44:29;;;;;;;19.90;11.07;;;4.40;17.50;;;;;;5060977;28;20090;-65
2022/01/10 12:46:57;;;;;;;24.80;11.25;;;4.30;18.20;;;;;;5058694;28;20146;-64
2022/01/10 12:49:26;;;;;;;23.13;11.93;;;4.40;16.60;;;;;;5058728;28;20059;-65
2022/01/10 12:51:56;;;;;;;20.45;12.00;;;4.40;17.80;;;;;;5066026;28;20692;-66
2022/01/10 12:54:32;;;;;;;24.08;11.73;;;4.50;18.10;;;;;;5064292;28;20040;-66